Time,TemperatureF,DewpointF,PressureIn,WindDirection,WindDirectionDegrees,WindSpeedMPH,WindSpeedGustMPH,Humidity,HourlyPrecipIn,Conditions,Clouds,dailyrainin,SoftwareType,DateUTC
2013-09-14 00:01:00,48.6,46.1,30.05,North,32767,-999.0,0.0,91,0.00,,,0.00,Wunderground v.1.15,2013-09-14 04:01:00,
2013-09-14 00:02:00,48.6,46.1,30.06,North,32767,-999.0,0.0,91,0.00,,,0.00,Wunderground v.1.15,2013-09-14 04:02:00,
2013-09-14 00:06:00,48.5,46.0,30.06,North,32767,-999.0,0.0,91,0.00,,,0.00,Wunderground v.1.15,2013-09-14 04:06:00,
2013-09-14 00:07:00,48.5,46.0,30.06,North,32767,-999.0,0.0,91,0.00,,,0.00,Wunderground v.1.15,2013-09-14 04:07:00,
2013-09-14 00:09:00,48.5,46.0,30.06,North,32767,-999.0,0.0,91,0.00,,,0.00,Wunderground v.1.15,2013-09-14 04:09:00,
2013-09-14 00:14:00,48.3,45.8,30.06,North,32767,-999.0,0.0,91,0.00,,,0.00,Wunderground v.1.15,2013-09-14 04:14:00,
2013-09-14 00:19:00,48.2,45.7,30.06,North,32767,-999.0,0.0,91,0.00,,,0.00,Wunderground v.1.15,2013-09-14 04:19:00,
2013-09-14 00:23:00,48.1,45.6,30.05,North,32767,-999.0,0.0,91,0.00,,,0.00,Wunderground v.1.15,2013-09-14 04:23:00,
2013-09-14 00:29:00,47.9,45.4,30.06,North,32767,-999.0,0.0,91,0.00,,,0.00,Wunderground v.1.15,2013-09-14 04:29:00,
2013-09-14 00:34:00,47.8,45.3,30.06,North,32767,-999.0,0.0,91,0.00,,,0.00,Wunderground v.1.15,2013-09-14 04:34:00,
2013-09-14 00:39:00,47.6,45.1,30.06,North,32767,-999.0,0.0,91,0.00,,,0.00,Wunderground v.1.15,2013-09-14 04:39:00,
2013-09-14 00:44:00,47.5,45.0,30.06,North,32767,-999.0,0.0,91,0.00,,,0.00,Wunderground v.1.15,2013-09-14 04:44:00,
2013-09-14 00:50:00,47.3,44.8,30.06,North,32767,-999.0,0.0,91,0.00,,,0.00,Wunderground v.1.15,2013-09-14 04:50:00,
2013-09-14 00:55:00,47.2,45.0,30.06,North,32767,-999.0,0.0,92,0.00,,,0.00,Wunderground v.1.15,2013-09-14 04:55:00,
2013-09-14 01:00:00,47.1,44.9,30.06,North,32767,-999.0,0.0,92,0.00,,,0.00,Wunderground v.1.15,2013-09-14 05:00:00,
2013-09-14 01:05:00,47.0,44.8,30.06,North,32767,-999.0,0.0,92,0.00,,,0.00,Wunderground v.1.15,2013-09-14 05:05:00,
2013-09-14 01:10:00,46.8,44.6,30.06,North,32767,-999.0,0.0,92,0.00,,,0.00,Wunderground v.1.15,2013-09-14 05:10:00,
2013-09-14 01:15:00,46.5,44.3,30.07,North,32767,-999.0,0.0,92,0.00,,,0.00,Wunderground v.1.15,2013-09-14 05:15:00,
2013-09-14 01:20:00,46.3,44.1,30.07,North,32767,-999.0,0.0,92,0.00,,,0.00,Wunderground v.1.15,2013-09-14 05:20:00,
2013-09-14 01:25:00,46.2,44.0,30.06,North,32767,-999.0,0.0,92,0.00,,,0.00,Wunderground v.1.15,2013-09-14 05:25:00,
2013-09-14 01:30:00,46.2,44.3,30.06,North,32767,-999.0,0.0,93,0.00,,,0.00,Wunderground v.1.15,2013-09-14 05:30:00,
2013-09-14 01:35:00,46.2,44.3,30.06,North,32767,-999.0,0.0,93,0.00,,,0.00,Wunderground v.1.15,2013-09-14 05:35:00,
2013-09-14 01:40:00,46.1,44.2,30.06,North,32767,-999.0,0.0,93,0.00,,,0.00,Wunderground v.1.15,2013-09-14 05:40:00,
2013-09-14 01:45:00,46.2,44.3,30.07,North,32767,-999.0,0.0,93,0.00,,,0.00,Wunderground v.1.15,2013-09-14 05:45:00,
2013-09-14 01:50:00,46.4,44.5,30.07,North,32767,-999.0,0.0,93,0.00,,,0.00,Wunderground v.1.15,2013-09-14 05:50:00,
2013-09-14 01:55:00,46.5,44.9,30.07,North,32767,-999.0,0.0,94,0.00,,,0.00,Wunderground v.1.15,2013-09-14 05:55:00,
2013-09-14 02:00:00,46.5,44.9,30.07,North,32767,-999.0,0.0,94,0.00,,,0.00,Wunderground v.1.15,2013-09-14 06:00:00,
2013-09-14 02:06:00,46.5,44.9,30.07,North,32767,-999.0,0.0,94,0.00,,,0.00,Wunderground v.1.15,2013-09-14 06:06:00,
2013-09-14 02:11:00,46.5,44.9,30.07,North,32767,-999.0,0.0,94,0.00,,,0.00,Wunderground v.1.15,2013-09-14 06:11:00,
2013-09-14 02:17:00,46.5,44.6,30.07,North,32767,-999.0,0.0,93,0.00,,,0.00,Wunderground v.1.15,2013-09-14 06:17:00,
2013-09-14 02:23:00,46.5,44.6,30.07,North,32767,-999.0,0.0,93,0.00,,,0.00,Wunderground v.1.15,2013-09-14 06:23:00,
2013-09-14 02:29:00,46.3,44.4,30.08,North,32767,-999.0,0.0,93,0.00,,,0.00,Wunderground v.1.15,2013-09-14 06:29:00,
2013-09-14 02:35:00,46.1,44.2,30.08,North,32767,-999.0,0.0,93,0.00,,,0.00,Wunderground v.1.15,2013-09-14 06:35:00,
2013-09-14 02:41:00,45.9,44.0,30.08,North,32767,-999.0,0.0,93,0.00,,,0.00,Wunderground v.1.15,2013-09-14 06:41:00,
2013-09-14 02:47:00,45.6,43.7,30.08,North,32767,-999.0,0.0,93,0.00,,,0.00,Wunderground v.1.15,2013-09-14 06:47:00,
2013-09-14 02:52:00,45.2,43.3,30.08,North,32767,-999.0,0.0,93,0.00,,,0.00,Wunderground v.1.15,2013-09-14 06:52:00,
2013-09-14 02:57:00,45.0,43.1,30.08,North,32767,-999.0,0.0,93,0.00,,,0.00,Wunderground v.1.15,2013-09-14 06:57:00,
2013-09-14 03:02:00,44.7,42.8,30.08,North,32767,-999.0,0.0,93,0.00,,,0.00,Wunderground v.1.15,2013-09-14 07:02:00,
2013-09-14 03:08:00,44.6,42.7,30.08,North,32767,-999.0,0.0,93,0.00,,,0.00,Wunderground v.1.15,2013-09-14 07:08:00,
2013-09-14 03:14:00,44.7,42.8,30.08,North,32767,-999.0,0.0,93,0.00,,,0.00,Wunderground v.1.15,2013-09-14 07:14:00,
2013-09-14 03:20:00,44.5,42.6,30.08,North,32767,-999.0,0.0,93,0.00,,,0.00,Wunderground v.1.15,2013-09-14 07:20:00,
2013-09-14 03:25:00,44.4,42.5,30.08,North,32767,-999.0,0.0,93,0.00,,,0.00,Wunderground v.1.15,2013-09-14 07:25:00,
2013-09-14 03:30:00,44.3,42.4,30.08,North,32767,-999.0,0.0,93,0.00,,,0.00,Wunderground v.1.15,2013-09-14 07:30:00,
2013-09-14 03:35:00,44.2,42.6,30.08,North,32767,-999.0,0.0,94,0.00,,,0.00,Wunderground v.1.15,2013-09-14 07:35:00,
2013-09-14 03:41:00,44.0,42.4,30.08,North,32767,-999.0,0.0,94,0.00,,,0.00,Wunderground v.1.15,2013-09-14 07:41:00,
2013-09-14 03:46:00,43.7,42.1,30.08,North,32767,-999.0,0.0,94,0.00,,,0.00,Wunderground v.1.15,2013-09-14 07:46:00,
2013-09-14 03:52:00,43.5,41.9,30.08,North,32767,-999.0,0.0,94,0.00,,,0.00,Wunderground v.1.15,2013-09-14 07:52:00,
2013-09-14 03:58:00,43.4,41.8,30.08,North,32767,-999.0,0.0,94,0.00,,,0.00,Wunderground v.1.15,2013-09-14 07:58:00,
2013-09-14 04:03:00,43.5,41.9,30.08,North,32767,-999.0,0.0,94,0.00,,,0.00,Wunderground v.1.15,2013-09-14 08:03:00,
2013-09-14 04:09:00,43.5,41.9,30.08,North,32767,-999.0,0.0,94,0.00,,,0.00,Wunderground v.1.15,2013-09-14 08:09:00,
2013-09-14 04:15:00,43.4,41.8,30.08,North,32767,-999.0,0.0,94,0.00,,,0.00,Wunderground v.1.15,2013-09-14 08:15:00,
2013-09-14 04:20:00,43.4,41.8,30.08,North,32767,-999.0,0.0,94,0.00,,,0.00,Wunderground v.1.15,2013-09-14 08:20:00,
2013-09-14 04:25:00,43.3,41.7,30.08,North,32767,-999.0,0.0,94,0.00,,,0.01,Wunderground v.1.15,2013-09-14 08:25:00,
2013-09-14 04:31:00,43.2,41.6,30.08,North,32767,-999.0,0.0,94,0.00,,,0.01,Wunderground v.1.15,2013-09-14 08:31:00,
2013-09-14 04:36:00,43.2,41.6,30.08,North,32767,-999.0,0.0,94,0.00,,,0.01,Wunderground v.1.15,2013-09-14 08:36:00,
2013-09-14 04:41:00,43.2,41.6,30.08,North,32767,-999.0,0.0,94,0.00,,,0.01,Wunderground v.1.15,2013-09-14 08:41:00,
2013-09-14 04:46:00,43.0,41.4,30.08,North,32767,-999.0,0.0,94,0.00,,,0.01,Wunderground v.1.15,2013-09-14 08:46:00,
2013-09-14 04:51:00,43.0,41.7,30.08,North,32767,-999.0,0.0,95,0.00,,,0.01,Wunderground v.1.15,2013-09-14 08:51:00,
2013-09-14 04:57:00,43.0,41.4,30.09,North,32767,-999.0,0.0,94,0.00,,,0.01,Wunderground v.1.15,2013-09-14 08:57:00,
2013-09-14 05:02:00,43.1,41.5,30.08,North,32767,-999.0,0.0,94,0.00,,,0.01,Wunderground v.1.15,2013-09-14 09:02:00,
2013-09-14 05:07:00,43.1,41.5,30.08,North,32767,-999.0,0.0,94,0.00,,,0.01,Wunderground v.1.15,2013-09-14 09:07:00,
2013-09-14 05:12:00,42.8,41.2,30.09,North,32767,-999.0,0.0,94,0.00,,,0.01,Wunderground v.1.15,2013-09-14 09:12:00,
2013-09-14 05:17:00,42.6,41.0,30.09,North,32767,-999.0,0.0,94,0.00,,,0.01,Wunderground v.1.15,2013-09-14 09:17:00,
2013-09-14 05:23:00,42.6,41.0,30.09,North,32767,-999.0,0.0,94,0.00,,,0.01,Wunderground v.1.15,2013-09-14 09:23:00,
2013-09-14 05:28:00,42.6,41.3,30.09,North,32767,-999.0,0.0,95,0.00,,,0.01,Wunderground v.1.15,2013-09-14 09:28:00,
2013-09-14 05:33:00,42.6,41.0,30.09,North,32767,-999.0,0.0,94,0.00,,,0.01,Wunderground v.1.15,2013-09-14 09:33:00,
2013-09-14 05:38:00,42.4,40.8,30.09,North,32767,-999.0,0.0,94,0.00,,,0.01,Wunderground v.1.15,2013-09-14 09:38:00,
2013-09-14 05:43:00,42.1,40.5,30.09,North,32767,-999.0,0.0,94,0.00,,,0.01,Wunderground v.1.15,2013-09-14 09:43:00,
2013-09-14 05:48:00,41.8,40.2,30.09,North,32767,-999.0,0.0,94,0.00,,,0.01,Wunderground v.1.15,2013-09-14 09:48:00,
2013-09-14 05:53:00,41.7,40.1,30.09,North,32767,-999.0,0.0,94,0.00,,,0.01,Wunderground v.1.15,2013-09-14 09:53:00,
2013-09-14 05:58:00,41.6,40.0,30.09,North,32767,-999.0,0.0,94,0.00,,,0.01,Wunderground v.1.15,2013-09-14 09:58:00,
2013-09-14 06:03:00,41.5,39.9,30.10,North,32767,-999.0,0.0,94,0.00,,,0.01,Wunderground v.1.15,2013-09-14 10:03:00,
2013-09-14 06:08:00,41.4,39.8,30.10,North,32767,-999.0,0.0,94,0.00,,,0.01,Wunderground v.1.15,2013-09-14 10:08:00,
2013-09-14 06:13:00,41.3,39.7,30.10,North,32767,-999.0,0.0,94,0.00,,,0.01,Wunderground v.1.15,2013-09-14 10:13:00,
2013-09-14 06:18:00,41.2,39.6,30.09,North,32767,-999.0,0.0,94,0.00,,,0.01,Wunderground v.1.15,2013-09-14 10:18:00,
2013-09-14 06:24:00,41.3,40.0,30.09,North,32767,-999.0,0.0,95,0.00,,,0.01,Wunderground v.1.15,2013-09-14 10:24:00,
2013-09-14 06:29:00,41.4,40.1,30.09,North,32767,-999.0,0.0,95,0.00,,,0.01,Wunderground v.1.15,2013-09-14 10:29:00,
2013-09-14 06:34:00,41.6,40.3,30.09,North,32767,-999.0,0.0,95,0.00,,,0.01,Wunderground v.1.15,2013-09-14 10:34:00,
2013-09-14 06:39:00,41.9,40.6,30.10,North,32767,-999.0,0.0,95,0.00,,,0.01,Wunderground v.1.15,2013-09-14 10:39:00,
2013-09-14 06:45:00,42.0,40.7,30.10,North,32767,-999.0,0.0,95,0.00,,,0.01,Wunderground v.1.15,2013-09-14 10:45:00,
2013-09-14 06:50:00,42.0,40.7,30.10,North,32767,-999.0,0.0,95,0.00,,,0.01,Wunderground v.1.15,2013-09-14 10:50:00,
2013-09-14 06:55:00,42.0,40.7,30.10,North,32767,-999.0,0.0,95,0.00,,,0.01,Wunderground v.1.15,2013-09-14 10:55:00,
2013-09-14 07:00:00,42.0,40.7,30.11,North,32767,-999.0,0.0,95,0.00,,,0.01,Wunderground v.1.15,2013-09-14 11:00:00,
2013-09-14 07:05:00,41.9,40.6,30.11,North,32767,-999.0,0.0,95,0.00,,,0.01,Wunderground v.1.15,2013-09-14 11:05:00,
2013-09-14 07:11:00,41.9,40.6,30.11,North,32767,-999.0,0.0,95,0.00,,,0.01,Wunderground v.1.15,2013-09-14 11:11:00,
2013-09-14 07:17:00,41.9,40.6,30.11,North,32767,-999.0,0.0,95,0.00,,,0.01,Wunderground v.1.15,2013-09-14 11:17:00,
2013-09-14 07:23:00,41.9,40.6,30.12,North,32767,-999.0,0.0,95,0.00,,,0.01,Wunderground v.1.15,2013-09-14 11:23:00,
2013-09-14 07:28:00,41.9,40.6,30.12,North,32767,-999.0,0.0,95,0.00,,,0.01,Wunderground v.1.15,2013-09-14 11:28:00,
2013-09-14 07:34:00,42.0,40.7,30.12,North,32767,-999.0,0.0,95,0.00,,,0.01,Wunderground v.1.15,2013-09-14 11:34:00,
2013-09-14 07:39:00,42.2,40.9,30.13,North,32767,-999.0,0.0,95,0.00,,,0.01,Wunderground v.1.15,2013-09-14 11:39:00,
2013-09-14 07:44:00,42.4,41.1,30.13,North,32767,-999.0,0.0,95,0.00,,,0.01,Wunderground v.1.15,2013-09-14 11:44:00,
2013-09-14 07:49:00,42.6,41.3,30.13,North,32767,-999.0,0.0,95,0.00,,,0.01,Wunderground v.1.15,2013-09-14 11:49:00,
2013-09-14 07:54:00,42.8,41.2,30.13,North,32767,-999.0,0.0,94,0.00,,,0.01,Wunderground v.1.15,2013-09-14 11:54:00,
2013-09-14 08:00:00,43.5,42.2,30.13,North,32767,-999.0,0.0,95,0.00,,,0.01,Wunderground v.1.15,2013-09-14 12:00:00,
2013-09-14 08:05:00,44.1,42.5,30.13,North,32767,-999.0,0.0,94,0.00,,,0.01,Wunderground v.1.15,2013-09-14 12:05:00,
2013-09-14 08:10:00,44.7,43.1,30.13,North,32767,-999.0,0.0,94,0.00,,,0.01,Wunderground v.1.15,2013-09-14 12:10:00,
2013-09-14 08:15:00,45.3,43.7,30.14,North,32767,-999.0,0.0,94,0.00,,,0.01,Wunderground v.1.15,2013-09-14 12:15:00,
2013-09-14 08:21:00,46.1,44.2,30.14,North,32767,-999.0,0.0,93,0.00,,,0.01,Wunderground v.1.15,2013-09-14 12:21:00,
2013-09-14 08:26:00,46.8,44.6,30.14,North,32767,-999.0,0.0,92,0.00,,,0.01,Wunderground v.1.15,2013-09-14 12:26:00,
2013-09-14 08:31:00,47.6,45.1,30.15,North,32767,-999.0,0.0,91,0.00,,,0.01,Wunderground v.1.15,2013-09-14 12:31:00,
2013-09-14 08:36:00,48.3,45.2,30.15,North,32767,-999.0,0.0,89,0.00,,,0.01,Wunderground v.1.15,2013-09-14 12:36:00,
2013-09-14 08:41:00,49.0,45.6,30.14,North,32767,-999.0,0.0,88,0.00,,,0.01,Wunderground v.1.15,2013-09-14 12:41:00,
2013-09-14 08:46:00,49.4,45.4,30.15,North,32767,-999.0,0.0,86,0.00,,,0.01,Wunderground v.1.15,2013-09-14 12:46:00,
2013-09-14 08:52:00,49.8,45.5,30.15,North,32767,-999.0,0.0,85,0.00,,,0.01,Wunderground v.1.15,2013-09-14 12:52:00,
2013-09-14 08:57:00,50.3,45.6,30.15,North,32767,-999.0,0.0,84,0.00,,,0.01,Wunderground v.1.15,2013-09-14 12:57:00,
2013-09-14 09:02:00,50.8,46.1,30.15,North,32767,-999.0,0.0,84,0.00,,,0.01,Wunderground v.1.15,2013-09-14 13:02:00,
2013-09-14 09:07:00,51.3,45.7,30.15,North,32767,-999.0,0.0,81,0.00,,,0.01,Wunderground v.1.15,2013-09-14 13:07:00,
2013-09-14 09:12:00,51.9,46.6,30.15,North,32767,-999.0,0.0,82,0.00,,,0.01,Wunderground v.1.15,2013-09-14 13:12:00,
2013-09-14 09:17:00,52.4,46.4,30.15,North,32767,-999.0,0.0,80,0.00,,,0.01,Wunderground v.1.15,2013-09-14 13:17:00,
2013-09-14 09:22:00,53.1,47.1,30.15,North,32767,-999.0,0.0,80,0.00,,,0.01,Wunderground v.1.15,2013-09-14 13:22:00,
2013-09-14 09:27:00,53.5,46.5,30.15,North,32767,-999.0,0.0,77,0.00,,,0.01,Wunderground v.1.15,2013-09-14 13:27:00,
2013-09-14 09:32:00,53.8,46.8,30.15,North,32767,-999.0,0.0,77,0.00,,,0.01,Wunderground v.1.15,2013-09-14 13:32:00,
2013-09-14 09:38:00,53.9,46.2,30.16,North,32767,-999.0,0.0,75,0.00,,,0.01,Wunderground v.1.15,2013-09-14 13:38:00,
2013-09-14 09:44:00,53.8,45.7,30.16,North,32767,-999.0,0.0,74,0.00,,,0.01,Wunderground v.1.15,2013-09-14 13:44:00,
2013-09-14 09:50:00,53.8,45.7,30.16,North,32767,-999.0,0.0,74,0.00,,,0.01,Wunderground v.1.15,2013-09-14 13:50:00,
2013-09-14 09:55:00,53.9,45.8,30.16,North,32767,-999.0,0.0,74,0.00,,,0.01,Wunderground v.1.15,2013-09-14 13:55:00,
2013-09-14 10:00:00,54.1,45.6,30.16,North,32767,-999.0,0.0,73,0.00,,,0.01,Wunderground v.1.15,2013-09-14 14:00:00,
2013-09-14 10:05:00,54.6,46.1,30.16,North,32767,-999.0,0.0,73,0.00,,,0.01,Wunderground v.1.15,2013-09-14 14:05:00,
2013-09-14 10:10:00,55.1,46.6,30.16,North,32767,-999.0,0.0,73,0.00,,,0.01,Wunderground v.1.15,2013-09-14 14:10:00,
2013-09-14 10:15:00,55.4,45.8,30.16,North,32767,-999.0,0.0,70,0.00,,,0.01,Wunderground v.1.15,2013-09-14 14:15:00,
2013-09-14 10:20:00,55.6,46.0,30.16,North,32767,-999.0,0.0,70,0.00,,,0.01,Wunderground v.1.15,2013-09-14 14:20:00,
2013-09-14 10:25:00,56.0,47.1,30.16,North,32767,-999.0,0.0,72,0.00,,,0.01,Wunderground v.1.15,2013-09-14 14:25:00,
2013-09-14 10:30:00,56.4,47.1,30.17,North,32767,-999.0,0.0,71,0.00,,,0.01,Wunderground v.1.15,2013-09-14 14:30:00,
2013-09-14 10:36:00,56.6,46.5,30.17,North,32767,-999.0,0.0,69,0.00,,,0.01,Wunderground v.1.15,2013-09-14 14:36:00,
2013-09-14 10:41:00,56.4,46.4,30.17,North,32767,-999.0,0.0,69,0.00,,,0.01,Wunderground v.1.15,2013-09-14 14:41:00,
2013-09-14 10:47:00,56.6,46.5,30.17,North,32767,-999.0,0.0,69,0.00,,,0.01,Wunderground v.1.15,2013-09-14 14:47:00,
2013-09-14 10:52:00,56.9,47.6,30.17,North,32767,-999.0,0.0,71,0.00,,,0.01,Wunderground v.1.15,2013-09-14 14:52:00,
2013-09-14 10:57:00,57.3,46.8,30.16,North,32767,-999.0,0.0,68,0.00,,,0.01,Wunderground v.1.15,2013-09-14 14:57:00,
2013-09-14 11:03:00,57.6,47.1,30.16,North,32767,-999.0,0.0,68,0.00,,,0.01,Wunderground v.1.15,2013-09-14 15:03:00,
2013-09-14 11:09:00,57.8,46.9,30.16,North,32767,-999.0,0.0,67,0.00,,,0.01,Wunderground v.1.15,2013-09-14 15:09:00,
2013-09-14 11:15:00,58.4,48.3,30.16,North,32767,-999.0,0.0,69,0.00,,,0.01,Wunderground v.1.15,2013-09-14 15:15:00,
2013-09-14 11:20:00,59.0,47.7,30.16,North,32767,-999.0,0.0,66,0.00,,,0.01,Wunderground v.1.15,2013-09-14 15:20:00,
2013-09-14 11:25:00,59.3,47.5,30.16,North,32767,-999.0,0.0,65,0.00,,,0.01,Wunderground v.1.15,2013-09-14 15:25:00,
2013-09-14 11:30:00,59.3,47.5,30.16,North,32767,-999.0,0.0,65,0.00,,,0.01,Wunderground v.1.15,2013-09-14 15:30:00,
2013-09-14 11:35:00,59.6,47.4,30.16,North,32767,-999.0,0.0,64,0.00,,,0.01,Wunderground v.1.15,2013-09-14 15:35:00,
2013-09-14 11:41:00,60.0,47.8,30.16,North,32767,-999.0,0.0,64,0.00,,,0.01,Wunderground v.1.15,2013-09-14 15:41:00,
2013-09-14 11:46:00,60.4,48.2,30.16,North,32767,-999.0,0.0,64,0.00,,,0.01,Wunderground v.1.15,2013-09-14 15:46:00,
2013-09-14 11:51:00,60.7,47.6,30.16,North,32767,-999.0,0.0,62,0.00,,,0.01,Wunderground v.1.15,2013-09-14 15:51:00,
2013-09-14 11:56:00,60.9,47.8,30.16,North,32767,-999.0,0.0,62,0.00,,,0.01,Wunderground v.1.15,2013-09-14 15:56:00,
2013-09-14 12:01:00,61.1,47.5,30.16,North,32767,-999.0,0.0,61,0.00,,,0.01,Wunderground v.1.15,2013-09-14 16:01:00,
2013-09-14 12:07:00,61.4,48.7,30.16,North,32767,-999.0,0.0,63,0.00,,,0.01,Wunderground v.1.15,2013-09-14 16:07:00,
2013-09-14 12:12:00,61.4,47.8,30.16,North,32767,-999.0,0.0,61,0.00,,,0.01,Wunderground v.1.15,2013-09-14 16:12:00,
2013-09-14 12:17:00,61.4,47.4,30.16,North,32767,-999.0,0.0,60,0.00,,,0.01,Wunderground v.1.15,2013-09-14 16:17:00,
2013-09-14 12:22:00,61.9,48.7,30.16,North,32767,-999.0,0.0,62,0.00,,,0.01,Wunderground v.1.15,2013-09-14 16:22:00,
2013-09-14 12:27:00,61.9,47.9,30.16,North,32767,-999.0,0.0,60,0.00,,,0.01,Wunderground v.1.15,2013-09-14 16:27:00,
2013-09-14 12:33:00,61.9,48.3,30.16,North,32767,-999.0,0.0,61,0.00,,,0.01,Wunderground v.1.15,2013-09-14 16:33:00,
2013-09-14 12:38:00,62.0,48.8,30.16,North,32767,-999.0,0.0,62,0.00,,,0.01,Wunderground v.1.15,2013-09-14 16:38:00,
2013-09-14 12:43:00,62.4,49.6,30.15,North,32767,-999.0,0.0,63,0.00,,,0.01,Wunderground v.1.15,2013-09-14 16:43:00,
2013-09-14 12:48:00,62.7,48.2,30.15,North,32767,-999.0,0.0,59,0.00,,,0.01,Wunderground v.1.15,2013-09-14 16:48:00,
2013-09-14 12:53:00,62.8,50.9,30.15,North,32767,-999.0,0.0,65,0.00,,,0.01,Wunderground v.1.15,2013-09-14 16:53:00,
2013-09-14 12:59:00,63.3,49.2,30.15,North,32767,-999.0,0.0,60,0.00,,,0.01,Wunderground v.1.15,2013-09-14 16:59:00,
2013-09-14 13:04:00,63.5,49.4,30.15,North,32767,-999.0,0.0,60,0.00,,,0.01,Wunderground v.1.15,2013-09-14 17:04:00,
2013-09-14 13:09:00,63.5,48.5,30.15,North,32767,-999.0,0.0,58,0.00,,,0.01,Wunderground v.1.15,2013-09-14 17:09:00,
2013-09-14 13:14:00,63.8,49.6,30.15,North,32767,-999.0,0.0,60,0.00,,,0.01,Wunderground v.1.15,2013-09-14 17:14:00,
2013-09-14 13:19:00,63.9,48.8,30.15,North,32767,-999.0,0.0,58,0.00,,,0.01,Wunderground v.1.15,2013-09-14 17:19:00,
2013-09-14 13:25:00,64.0,49.8,30.15,North,32767,-999.0,0.0,60,0.00,,,0.01,Wunderground v.1.15,2013-09-14 17:25:00,
2013-09-14 13:30:00,64.3,49.7,30.15,North,32767,-999.0,0.0,59,0.00,,,0.01,Wunderground v.1.15,2013-09-14 17:30:00,
2013-09-14 13:36:00,64.3,50.1,30.15,North,32767,-999.0,0.0,60,0.00,,,0.01,Wunderground v.1.15,2013-09-14 17:36:00,
2013-09-14 13:42:00,64.3,49.2,30.15,North,32767,-999.0,0.0,58,0.00,,,0.01,Wunderground v.1.15,2013-09-14 17:42:00,
2013-09-14 13:47:00,64.1,49.0,30.15,North,32767,-999.0,0.0,58,0.00,,,0.01,Wunderground v.1.15,2013-09-14 17:47:00,
2013-09-14 13:53:00,63.8,49.2,30.14,North,32767,-999.0,0.0,59,0.00,,,0.01,Wunderground v.1.15,2013-09-14 17:53:00,
2013-09-14 13:58:00,63.9,50.2,30.14,North,32767,-999.0,0.0,61,0.00,,,0.01,Wunderground v.1.15,2013-09-14 17:58:00,
2013-09-14 14:04:00,64.6,49.5,30.14,North,32767,-999.0,0.0,58,0.00,,,0.01,Wunderground v.1.15,2013-09-14 18:04:00,
2013-09-14 14:10:00,64.8,48.7,30.14,North,32767,-999.0,0.0,56,0.00,,,0.01,Wunderground v.1.15,2013-09-14 18:10:00,
2013-09-14 14:15:00,64.8,48.2,30.14,North,32767,-999.0,0.0,55,0.00,,,0.01,Wunderground v.1.15,2013-09-14 18:15:00,
2013-09-14 14:21:00,65.2,50.5,30.13,North,32767,-999.0,0.0,59,0.00,,,0.01,Wunderground v.1.15,2013-09-14 18:21:00,
2013-09-14 14:27:00,66.0,49.4,30.13,North,32767,-999.0,0.0,55,0.00,,,0.01,Wunderground v.1.15,2013-09-14 18:27:00,
2013-09-14 14:32:00,66.0,49.4,30.13,North,32767,-999.0,0.0,55,0.00,,,0.01,Wunderground v.1.15,2013-09-14 18:32:00,
2013-09-14 14:37:00,65.6,48.5,30.13,North,32767,-999.0,0.0,54,0.00,,,0.01,Wunderground v.1.15,2013-09-14 18:37:00,
2013-09-14 14:43:00,65.4,48.3,30.12,North,32767,-999.0,0.0,54,0.00,,,0.01,Wunderground v.1.15,2013-09-14 18:43:00,
2013-09-14 14:48:00,65.6,48.5,30.12,North,32767,-999.0,0.0,54,0.00,,,0.01,Wunderground v.1.15,2013-09-14 18:48:00,
2013-09-14 14:53:00,66.2,48.0,30.11,North,32767,-999.0,0.0,52,0.00,,,0.01,Wunderground v.1.15,2013-09-14 18:53:00,
2013-09-14 14:58:00,66.6,47.9,30.11,North,32767,-999.0,0.0,51,0.00,,,0.01,Wunderground v.1.15,2013-09-14 18:58:00,
2013-09-14 15:04:00,66.9,48.7,30.11,North,32767,-999.0,0.0,52,0.00,,,0.01,Wunderground v.1.15,2013-09-14 19:04:00,
2013-09-14 15:10:00,66.9,49.2,30.11,North,32767,-999.0,0.0,53,0.00,,,0.01,Wunderground v.1.15,2013-09-14 19:10:00,
2013-09-14 15:16:00,67.1,48.4,30.11,North,32767,-999.0,0.0,51,0.00,,,0.01,Wunderground v.1.15,2013-09-14 19:16:00,
2013-09-14 15:21:00,67.2,49.0,30.11,North,32767,-999.0,0.0,52,0.00,,,0.01,Wunderground v.1.15,2013-09-14 19:21:00,
2013-09-14 15:27:00,67.2,48.5,30.10,North,32767,-999.0,0.0,51,0.00,,,0.01,Wunderground v.1.15,2013-09-14 19:27:00,
2013-09-14 15:33:00,67.3,50.1,30.11,North,32767,-999.0,0.0,54,0.00,,,0.01,Wunderground v.1.15,2013-09-14 19:33:00,
2013-09-14 15:38:00,68.1,50.3,30.10,North,32767,-999.0,0.0,53,0.00,,,0.01,Wunderground v.1.15,2013-09-14 19:38:00,
2013-09-14 15:43:00,68.5,49.1,30.10,North,32767,-999.0,0.0,50,0.00,,,0.01,Wunderground v.1.15,2013-09-14 19:43:00,
2013-09-14 15:48:00,68.6,50.8,30.10,North,32767,-999.0,0.0,53,0.00,,,0.01,Wunderground v.1.15,2013-09-14 19:48:00,
2013-09-14 15:54:00,68.2,49.9,30.11,North,32767,-999.0,0.0,52,0.00,,,0.01,Wunderground v.1.15,2013-09-14 19:54:00,
2013-09-14 15:59:00,68.3,51.5,30.11,North,32767,-999.0,0.0,55,0.00,,,0.01,Wunderground v.1.15,2013-09-14 19:59:00,
2013-09-14 16:04:00,68.4,49.6,30.11,North,32767,-999.0,0.0,51,0.00,,,0.01,Wunderground v.1.15,2013-09-14 20:04:00,
2013-09-14 16:09:00,68.3,50.0,30.11,North,32767,-999.0,0.0,52,0.00,,,0.01,Wunderground v.1.15,2013-09-14 20:09:00,
2013-09-14 16:14:00,68.1,51.3,30.10,North,32767,-999.0,0.0,55,0.00,,,0.01,Wunderground v.1.15,2013-09-14 20:14:00,
2013-09-14 16:19:00,68.3,50.0,30.10,North,32767,-999.0,0.0,52,0.00,,,0.01,Wunderground v.1.15,2013-09-14 20:19:00,
2013-09-14 16:24:00,68.2,50.4,30.10,North,32767,-999.0,0.0,53,0.00,,,0.01,Wunderground v.1.15,2013-09-14 20:24:00,
2013-09-14 16:30:00,67.9,48.6,30.10,North,32767,-999.0,0.0,50,0.00,,,0.01,Wunderground v.1.15,2013-09-14 20:30:00,
2013-09-14 16:36:00,68.1,49.8,30.09,North,32767,-999.0,0.0,52,0.00,,,0.01,Wunderground v.1.15,2013-09-14 20:36:00,
2013-09-14 16:42:00,68.9,49.5,30.09,North,32767,-999.0,0.0,50,0.00,,,0.01,Wunderground v.1.15,2013-09-14 20:42:00,
2013-09-14 16:47:00,69.2,49.8,30.10,North,32767,-999.0,0.0,50,0.00,,,0.01,Wunderground v.1.15,2013-09-14 20:47:00,
2013-09-14 16:52:00,69.3,48.8,30.10,North,32767,-999.0,0.0,48,0.00,,,0.01,Wunderground v.1.15,2013-09-14 20:52:00,
2013-09-14 16:57:00,69.0,49.0,30.09,North,32767,-999.0,0.0,49,0.00,,,0.01,Wunderground v.1.15,2013-09-14 20:57:00,
2013-09-14 17:02:00,68.9,48.9,30.10,North,32767,-999.0,0.0,49,0.00,,,0.01,Wunderground v.1.15,2013-09-14 21:02:00,
2013-09-14 17:07:00,69.4,49.9,30.09,North,32767,-999.0,0.0,50,0.00,,,0.01,Wunderground v.1.15,2013-09-14 21:07:00,
2013-09-14 17:12:00,69.8,50.3,30.09,North,32767,-999.0,0.0,50,0.00,,,0.01,Wunderground v.1.15,2013-09-14 21:12:00,
2013-09-14 17:18:00,69.4,48.9,30.09,North,32767,-999.0,0.0,48,0.00,,,0.01,Wunderground v.1.15,2013-09-14 21:18:00,
2013-09-14 17:23:00,69.1,49.1,30.10,North,32767,-999.0,0.0,49,0.00,,,0.01,Wunderground v.1.15,2013-09-14 21:23:00,
2013-09-14 17:28:00,69.2,49.8,30.09,North,32767,-999.0,0.0,50,0.00,,,0.01,Wunderground v.1.15,2013-09-14 21:28:00,
2013-09-14 17:33:00,69.0,49.0,30.09,North,32767,-999.0,0.0,49,0.00,,,0.01,Wunderground v.1.15,2013-09-14 21:33:00,
2013-09-14 17:38:00,68.5,49.1,30.10,North,32767,-999.0,0.0,50,0.00,,,0.01,Wunderground v.1.15,2013-09-14 21:38:00,
2013-09-14 17:44:00,68.2,48.8,30.09,North,32767,-999.0,0.0,50,0.00,,,0.01,Wunderground v.1.15,2013-09-14 21:44:00,
2013-09-14 17:50:00,68.1,49.3,30.09,North,32767,-999.0,0.0,51,0.00,,,0.01,Wunderground v.1.15,2013-09-14 21:50:00,
2013-09-14 17:55:00,67.8,49.0,30.09,North,32767,-999.0,0.0,51,0.00,,,0.01,Wunderground v.1.15,2013-09-14 21:55:00,
2013-09-14 18:00:00,67.0,48.3,30.09,North,32767,-999.0,0.0,51,0.00,,,0.01,Wunderground v.1.15,2013-09-14 22:00:00,
2013-09-14 18:06:00,66.4,48.2,30.09,North,32767,-999.0,0.0,52,0.00,,,0.01,Wunderground v.1.15,2013-09-14 22:06:00,
2013-09-14 18:12:00,66.2,48.6,30.09,North,32767,-999.0,0.0,53,0.00,,,0.01,Wunderground v.1.15,2013-09-14 22:12:00,
2013-09-14 18:18:00,66.1,48.5,30.09,North,32767,-999.0,0.0,53,0.00,,,0.01,Wunderground v.1.15,2013-09-14 22:18:00,
2013-09-14 18:23:00,65.9,48.8,30.09,North,32767,-999.0,0.0,54,0.00,,,0.01,Wunderground v.1.15,2013-09-14 22:23:00,
2013-09-14 18:29:00,65.7,49.1,30.09,North,32767,-999.0,0.0,55,0.00,,,0.01,Wunderground v.1.15,2013-09-14 22:29:00,
2013-09-14 18:34:00,65.4,49.3,30.09,North,32767,-999.0,0.0,56,0.00,,,0.01,Wunderground v.1.15,2013-09-14 22:34:00,
2013-09-14 18:39:00,65.0,48.9,30.08,North,32767,-999.0,0.0,56,0.00,,,0.01,Wunderground v.1.15,2013-09-14 22:39:00,
2013-09-14 18:45:00,64.5,48.9,30.09,North,32767,-999.0,0.0,57,0.00,,,0.01,Wunderground v.1.15,2013-09-14 22:45:00,
2013-09-14 18:50:00,64.3,49.2,30.09,North,32767,-999.0,0.0,58,0.00,,,0.01,Wunderground v.1.15,2013-09-14 22:50:00,
2013-09-14 18:55:00,64.0,48.9,30.09,North,32767,-999.0,0.0,58,0.00,,,0.01,Wunderground v.1.15,2013-09-14 22:55:00,
2013-09-14 18:57:00,63.8,48.7,30.09,North,32767,-999.0,0.0,58,0.00,,,0.01,Wunderground v.1.15,2013-09-14 22:57:00,
2013-09-14 19:02:00,63.4,48.8,30.09,North,32767,-999.0,0.0,59,0.00,,,0.01,Wunderground v.1.15,2013-09-14 23:02:00,
2013-09-14 19:07:00,63.0,49.3,30.09,North,32767,-999.0,0.0,61,0.00,,,0.01,Wunderground v.1.15,2013-09-14 23:07:00,
2013-09-14 19:12:00,62.5,48.9,30.10,North,32767,-999.0,0.0,61,0.00,,,0.01,Wunderground v.1.15,2013-09-14 23:12:00,
2013-09-14 19:18:00,62.1,49.4,30.10,North,32767,-999.0,0.0,63,0.00,,,0.01,Wunderground v.1.15,2013-09-14 23:18:00,
2013-09-14 19:24:00,61.5,49.6,30.10,North,32767,-999.0,0.0,65,0.00,,,0.01,Wunderground v.1.15,2013-09-14 23:24:00,
2013-09-14 19:29:00,60.9,50.3,30.10,North,32767,-999.0,0.0,68,0.00,,,0.01,Wunderground v.1.15,2013-09-14 23:29:00,
2013-09-14 19:34:00,60.0,49.8,30.10,North,32767,-999.0,0.0,69,0.00,,,0.01,Wunderground v.1.15,2013-09-14 23:34:00,
2013-09-14 19:39:00,59.0,49.6,30.10,North,32767,-999.0,0.0,71,0.00,,,0.01,Wunderground v.1.15,2013-09-14 23:39:00,
2013-09-14 19:44:00,58.5,49.5,30.11,North,32767,-999.0,0.0,72,0.00,,,0.01,Wunderground v.1.15,2013-09-14 23:44:00,
2013-09-14 19:50:00,57.7,48.7,30.11,North,32767,-999.0,0.0,72,0.00,,,0.01,Wunderground v.1.15,2013-09-14 23:50:00,
2013-09-14 19:55:00,57.1,48.9,30.10,North,32767,-999.0,0.0,74,0.00,,,0.01,Wunderground v.1.15,2013-09-14 23:55:00,
2013-09-14 20:01:00,56.5,48.7,30.10,North,32767,-999.0,0.0,75,0.00,,,0.01,Wunderground v.1.15,2013-09-15 00:01:00,
2013-09-14 20:06:00,56.0,48.5,30.11,North,32767,-999.0,0.0,76,0.00,,,0.01,Wunderground v.1.15,2013-09-15 00:06:00,
2013-09-14 20:11:00,55.5,48.4,30.11,North,32767,-999.0,0.0,77,0.00,,,0.01,Wunderground v.1.15,2013-09-15 00:11:00,
2013-09-14 20:16:00,55.0,48.6,30.11,North,32767,-999.0,0.0,79,0.00,,,0.01,Wunderground v.1.15,2013-09-15 00:16:00,
2013-09-14 20:22:00,54.4,48.0,30.11,North,32767,-999.0,0.0,79,0.00,,,0.01,Wunderground v.1.15,2013-09-15 00:22:00,
2013-09-14 20:27:00,54.0,48.0,30.11,North,32767,-999.0,0.0,80,0.00,,,0.01,Wunderground v.1.15,2013-09-15 00:27:00,
2013-09-14 20:32:00,53.8,48.1,30.11,North,32767,-999.0,0.0,81,0.00,,,0.01,Wunderground v.1.15,2013-09-15 00:32:00,
2013-09-14 20:37:00,53.5,47.8,30.12,North,32767,-999.0,0.0,81,0.00,,,0.01,Wunderground v.1.15,2013-09-15 00:37:00,
2013-09-14 20:42:00,53.3,47.9,30.11,North,32767,-999.0,0.0,82,0.00,,,0.01,Wunderground v.1.15,2013-09-15 00:42:00,
2013-09-14 20:48:00,52.9,47.9,30.11,North,32767,-999.0,0.0,83,0.00,,,0.01,Wunderground v.1.15,2013-09-15 00:48:00,
2013-09-14 20:53:00,52.7,48.0,30.12,North,32767,-999.0,0.0,84,0.00,,,0.01,Wunderground v.1.15,2013-09-15 00:53:00,
2013-09-14 20:58:00,52.4,47.7,30.12,North,32767,-999.0,0.0,84,0.00,,,0.01,Wunderground v.1.15,2013-09-15 00:58:00,
2013-09-14 21:03:00,52.1,47.7,30.12,North,32767,-999.0,0.0,85,0.00,,,0.01,Wunderground v.1.15,2013-09-15 01:03:00,
2013-09-14 21:09:00,51.9,47.5,30.12,North,32767,-999.0,0.0,85,0.00,,,0.01,Wunderground v.1.15,2013-09-15 01:09:00,
2013-09-14 21:15:00,51.5,47.1,30.13,North,32767,-999.0,0.0,85,0.00,,,0.01,Wunderground v.1.15,2013-09-15 01:15:00,
2013-09-14 21:20:00,51.2,46.8,30.13,North,32767,-999.0,0.0,85,0.00,,,0.01,Wunderground v.1.15,2013-09-15 01:20:00,
2013-09-14 21:26:00,50.8,46.8,30.13,North,32767,-999.0,0.0,86,0.00,,,0.01,Wunderground v.1.15,2013-09-15 01:26:00,
2013-09-14 21:32:00,50.5,46.5,30.13,North,32767,-999.0,0.0,86,0.00,,,0.01,Wunderground v.1.15,2013-09-15 01:32:00,
2013-09-14 21:38:00,50.3,46.6,30.13,North,32767,-999.0,0.0,87,0.00,,,0.01,Wunderground v.1.15,2013-09-15 01:38:00,
2013-09-14 21:44:00,50.0,46.3,30.13,North,32767,-999.0,0.0,87,0.00,,,0.01,Wunderground v.1.15,2013-09-15 01:44:00,
2013-09-14 21:49:00,49.9,46.2,30.13,North,32767,-999.0,0.0,87,0.00,,,0.01,Wunderground v.1.15,2013-09-15 01:49:00,
2013-09-14 21:54:00,49.6,45.9,30.13,North,32767,-999.0,0.0,87,0.00,,,0.01,Wunderground v.1.15,2013-09-15 01:54:00,
2013-09-14 21:59:00,49.4,45.7,30.13,North,32767,-999.0,0.0,87,0.00,,,0.01,Wunderground v.1.15,2013-09-15 01:59:00,
2013-09-14 22:05:00,49.1,45.7,30.13,North,32767,-999.0,0.0,88,0.00,,,0.01,Wunderground v.1.15,2013-09-15 02:05:00,
2013-09-14 22:10:00,48.9,45.5,30.13,North,32767,-999.0,0.0,88,0.00,,,0.01,Wunderground v.1.15,2013-09-15 02:10:00,
2013-09-14 22:15:00,48.7,45.3,30.13,North,32767,-999.0,0.0,88,0.00,,,0.01,Wunderground v.1.15,2013-09-15 02:15:00,
2013-09-14 22:21:00,48.5,45.1,30.13,North,32767,-999.0,0.0,88,0.00,,,0.01,Wunderground v.1.15,2013-09-15 02:21:00,
2013-09-14 22:26:00,48.3,45.2,30.13,North,32767,-999.0,0.0,89,0.00,,,0.01,Wunderground v.1.15,2013-09-15 02:26:00,
2013-09-14 22:31:00,48.1,45.0,30.13,North,32767,-999.0,0.0,89,0.00,,,0.01,Wunderground v.1.15,2013-09-15 02:31:00,
2013-09-14 22:36:00,47.9,44.8,30.13,North,32767,-999.0,0.0,89,0.00,,,0.01,Wunderground v.1.15,2013-09-15 02:36:00,
2013-09-14 22:41:00,47.9,44.8,30.12,North,32767,-999.0,0.0,89,0.00,,,0.01,Wunderground v.1.15,2013-09-15 02:41:00,
2013-09-14 22:46:00,47.9,45.1,30.13,North,32767,-999.0,0.0,90,0.00,,,0.01,Wunderground v.1.15,2013-09-15 02:46:00,
2013-09-14 22:51:00,47.9,45.1,30.12,North,32767,-999.0,0.0,90,0.00,,,0.01,Wunderground v.1.15,2013-09-15 02:51:00,
2013-09-14 22:57:00,47.7,44.9,30.13,North,32767,-999.0,0.0,90,0.00,,,0.01,Wunderground v.1.15,2013-09-15 02:57:00,
2013-09-14 23:02:00,47.5,44.7,30.12,North,32767,-999.0,0.0,90,0.00,,,0.01,Wunderground v.1.15,2013-09-15 03:02:00,
2013-09-14 23:07:00,47.4,44.6,30.12,North,32767,-999.0,0.0,90,0.00,,,0.01,Wunderground v.1.15,2013-09-15 03:07:00,
2013-09-14 23:13:00,47.3,44.5,30.12,North,32767,-999.0,0.0,90,0.00,,,0.01,Wunderground v.1.15,2013-09-15 03:13:00,
2013-09-14 23:18:00,47.3,44.8,30.12,North,32767,-999.0,0.0,91,0.00,,,0.01,Wunderground v.1.15,2013-09-15 03:18:00,
2013-09-14 23:23:00,47.2,44.7,30.12,North,32767,-999.0,0.0,91,0.00,,,0.01,Wunderground v.1.15,2013-09-15 03:23:00,
2013-09-14 23:28:00,47.2,44.7,30.12,North,32767,-999.0,0.0,91,0.00,,,0.01,Wunderground v.1.15,2013-09-15 03:28:00,
2013-09-14 23:33:00,47.2,44.7,30.12,North,32767,-999.0,0.0,91,0.00,,,0.01,Wunderground v.1.15,2013-09-15 03:33:00,
2013-09-14 23:38:00,47.1,44.6,30.12,North,32767,-999.0,0.0,91,0.00,,,0.01,Wunderground v.1.15,2013-09-15 03:38:00,
2013-09-14 23:43:00,47.0,44.5,30.12,North,32767,-999.0,0.0,91,0.00,,,0.01,Wunderground v.1.15,2013-09-15 03:43:00,
2013-09-14 23:49:00,46.9,44.7,30.12,North,32767,-999.0,0.0,92,0.00,,,0.01,Wunderground v.1.15,2013-09-15 03:49:00,
2013-09-14 23:55:00,46.9,44.7,30.11,North,32767,-999.0,0.0,92,0.00,,,0.01,Wunderground v.1.15,2013-09-15 03:55:00,